Aérodrome :
LOGIN :

S'inscrire | Disclaimer

   EN    FR    IT 

 










Légende :    VFR   VFR Marginal   IFR   IFR Intensif   IFR Très Intensif
Visi : 
Plafond : 
>= 8 km
>= 3000ft
5 à 8 km
1000 à 3000 ft
1500m à 5 km
500 à 1000 ft
800 à 1500m
200 à 500 ft
< 800m
< 200 ft
Symboles :   Orages  Brouillard  Fortes neiges  Fortes précipitations  Vent > 20 kt
SIGMETs :   Divers  Orages  Givrage  Turbulence  Onde Orograph.  Cendres Volcan.







- Altitude de l'aérodrome : 203 ft
- Code IATA : XMJ
- Voir les cartes d'approche


LFBM - Mont-De-Marsan

DERNIER METAR :
  • 142100Z AUTO 07002KT 4000 1000 R27/P2000 BR VV/// 09/09 Q1019 TEMPO 0800 BCFG BECMG NSC

METARs EXPIRÉS :
  • 142030Z AUTO 08003KT 5000 1000 R27/1500D BR VV/// 10/09 Q1019 TEMPO 0800 BCFG BECMG NSC
  • 142000Z AUTO 06002KT 8000 0650 R27/P2000 BCFG NSC 10/10 Q1019 TEMPO 0800 BCFG
  • 141930Z AUTO 06002KT 1700 0550 R27/1000U BCFG NSC 11/11 Q1020 TEMPO 0800 BCFG
  • 141900Z AUTO 04003KT 7000 0800 R27/P2000 BCFG NSC 11/11 Q1020 BECMG 1500 BR
  • 141830Z AUTO 06003KT 9000 NSC 12/12 Q1020 BECMG 1500 BR

TAF TAF LFBM
Valide du 14 à 21h jusqu'au 15 à 21h UTC


142000Z 1421/1521 07003KT 1500 BR NSC
PROB40
TEMPO 1421/1502 0800 BCFG
BECMG 1423/1502 0500 FG VV///
BECMG 1506/1509 1500 BR OVC003
BECMG 1510/1513 CAVOK
BECMG 1518/1521 1500 BR
Pas de NOTAMs connus pour ce terrain.



MET'MAP, la Météo Aéronautique d'un coup d'oeil ! - Copyright ORBIFLY Décembre 2007 - Disclaimer

ORBIFLY MET'MAP TEAM :

Programmation & Développement : Alexandra Zaïnal
Conception & Développement : Baudouin d'Aumeries
Co-Programmation & Développement : Marc-Olivier Méhu
Soutien technique & logistique : Manuel Goepfert

Contact : metmap@orbifly.com




SOURCES & CREDITS :

   NOAA